sensor_id;sensor_type;location;lat;lon;timestamp;P1;durP1;ratioP1;P2;durP2;ratioP2
9938;SDS011;5008;50.656;7.188;2022-12-10T05:02:15;28.83;;;18.97;;
9938;SDS011;5008;50.656;7.188;2022-12-10T05:04:42;28.40;;;19.53;;
9938;SDS011;5008;50.656;7.188;2022-12-10T05:07:09;27.50;;;18.67;;
9938;SDS011;5008;50.656;7.188;2022-12-10T05:09:37;28.67;;;18.50;;
9938;SDS011;5008;50.656;7.188;2022-12-10T05:12:04;28.27;;;19.33;;
9938;SDS011;5008;50.656;7.188;2022-12-10T05:14:31;28.20;;;20.17;;
9938;SDS011;5008;50.656;7.188;2022-12-10T05:16:58;26.93;;;19.33;;
9938;SDS011;5008;50.656;7.188;2022-12-10T05:19:26;28.73;;;20.10;;
9938;SDS011;5008;50.656;7.188;2022-12-10T05:21:53;32.17;;;20.10;;
9938;SDS011;5008;50.656;7.188;2022-12-10T05:24:43;31.83;;;21.17;;
9938;SDS011;5008;50.656;7.188;2022-12-10T05:27:09;28.37;;;19.50;;
9938;SDS011;5008;50.656;7.188;2022-12-10T05:29:36;29.03;;;20.10;;
9938;SDS011;5008;50.656;7.188;2022-12-10T05:32:03;32.27;;;20.60;;
9938;SDS011;5008;50.656;7.188;2022-12-10T05:34:32;30.67;;;21.03;;
9938;SDS011;5008;50.656;7.188;2022-12-10T05:36:58;31.23;;;20.50;;
9938;SDS011;5008;50.656;7.188;2022-12-10T05:39:25;30.87;;;20.13;;
9938;SDS011;5008;50.656;7.188;2022-12-10T05:41:52;29.10;;;20.97;;
9938;SDS011;5008;50.656;7.188;2022-12-10T05:44:19;30.60;;;20.53;;
9938;SDS011;5008;50.656;7.188;2022-12-10T05:46:49;30.87;;;20.70;;
9938;SDS011;5008;50.656;7.188;2022-12-10T05:49:18;29.10;;;20.33;;
9938;SDS011;5008;50.656;7.188;2022-12-10T05:51:46;28.97;;;20.63;;
9938;SDS011;5008;50.656;7.188;2022-12-10T05:54:12;30.97;;;20.77;;
9938;SDS011;5008;50.656;7.188;2022-12-10T05:56:39;35.17;;;21.10;;
9938;SDS011;5008;50.656;7.188;2022-12-10T05:59:06;33.70;;;22.00;;
9938;SDS011;5008;50.656;7.188;2022-12-10T06:01:33;32.10;;;21.13;;
9938;SDS011;5008;50.656;7.188;2022-12-10T06:04:02;29.37;;;20.70;;
9938;SDS011;5008;50.656;7.188;2022-12-10T06:06:33;27.20;;;19.73;;
9938;SDS011;5008;50.656;7.188;2022-12-10T06:09:03;27.40;;;19.93;;
9938;SDS011;5008;50.656;7.188;2022-12-10T06:11:31;31.00;;;20.70;;
9938;SDS011;5008;50.656;7.188;2022-12-10T06:13:58;29.73;;;20.80;;
9938;SDS011;5008;50.656;7.188;2022-12-10T06:16:27;31.90;;;21.83;;
9938;SDS011;5008;50.656;7.188;2022-12-10T06:18:54;32.03;;;21.33;;
9938;SDS011;5008;50.656;7.188;2022-12-10T06:21:22;34.43;;;21.87;;
9938;SDS011;5008;50.656;7.188;2022-12-10T06:23:49;28.00;;;19.70;;
9938;SDS011;5008;50.656;7.188;2022-12-10T06:26:19;30.83;;;21.00;;
9938;SDS011;5008;50.656;7.188;2022-12-10T06:28:48;30.87;;;21.53;;
9938;SDS011;5008;50.656;7.188;2022-12-10T06:31:15;30.53;;;20.40;;
9938;SDS011;5008;50.656;7.188;2022-12-10T06:33:43;29.07;;;20.33;;
9938;SDS011;5008;50.656;7.188;2022-12-10T06:36:10;30.63;;;21.37;;
9938;SDS011;5008;50.656;7.188;2022-12-10T06:38:39;31.23;;;20.37;;
9938;SDS011;5008;50.656;7.188;2022-12-10T06:41:08;28.27;;;20.57;;
9938;SDS011;5008;50.656;7.188;2022-12-10T06:43:38;31.07;;;20.17;;
9938;SDS011;5008;50.656;7.188;2022-12-10T06:46:05;29.67;;;21.43;;
9938;SDS011;5008;50.656;7.188;2022-12-10T06:48:33;31.93;;;21.70;;
9938;SDS011;5008;50.656;7.188;2022-12-10T06:51:00;30.27;;;21.50;;
9938;SDS011;5008;50.656;7.188;2022-12-10T06:53:27;30.30;;;20.97;;
9938;SDS011;5008;50.656;7.188;2022-12-10T06:55:54;28.93;;;20.43;;
9938;SDS011;5008;50.656;7.188;2022-12-10T06:58:23;34.03;;;22.13;;
9938;SDS011;5008;50.656;7.188;2022-12-10T07:00:51;34.03;;;23.23;;
9938;SDS011;5008;50.656;7.188;2022-12-10T07:03:18;30.93;;;21.87;;
9938;SDS011;5008;50.656;7.188;2022-12-10T07:05:45;32.20;;;21.63;;
9938;SDS011;5008;50.656;7.188;2022-12-10T07:08:13;36.73;;;22.37;;
9938;SDS011;5008;50.656;7.188;2022-12-10T07:10:42;33.67;;;22.33;;
9938;SDS011;5008;50.656;7.188;2022-12-10T07:13:14;28.80;;;21.10;;
9938;SDS011;5008;50.656;7.188;2022-12-10T07:15:41;34.23;;;22.23;;
9938;SDS011;5008;50.656;7.188;2022-12-10T07:18:09;29.27;;;20.77;;
9938;SDS011;5008;50.656;7.188;2022-12-10T07:20:36;33.83;;;21.97;;
9938;SDS011;5008;50.656;7.188;2022-12-10T07:23:03;32.23;;;21.40;;
9938;SDS011;5008;50.656;7.188;2022-12-10T07:25:30;33.03;;;22.43;;
9938;SDS011;5008;50.656;7.188;2022-12-10T07:27:58;31.50;;;22.17;;
9938;SDS011;5008;50.656;7.188;2022-12-10T07:30:24;32.13;;;22.80;;
9938;SDS011;5008;50.656;7.188;2022-12-10T07:32:51;34.53;;;22.70;;
9938;SDS011;5008;50.656;7.188;2022-12-10T07:35:19;35.57;;;22.43;;
9938;SDS011;5008;50.656;7.188;2022-12-10T07:37:46;33.20;;;22.17;;
9938;SDS011;5008;50.656;7.188;2022-12-10T07:40:13;34.70;;;21.93;;
9938;SDS011;5008;50.656;7.188;2022-12-10T07:42:40;29.60;;;20.93;;
9938;SDS011;5008;50.656;7.188;2022-12-10T07:45:07;33.93;;;23.23;;
9938;SDS011;5008;50.656;7.188;2022-12-10T07:47:34;33.83;;;22.57;;
9938;SDS011;5008;50.656;7.188;2022-12-10T07:50:02;32.07;;;21.63;;
9938;SDS011;5008;50.656;7.188;2022-12-10T07:52:30;34.03;;;22.80;;
9938;SDS011;5008;50.656;7.188;2022-12-10T07:54:57;30.67;;;21.00;;
9938;SDS011;5008;50.656;7.188;2022-12-10T07:57:24;31.30;;;21.50;;
9938;SDS011;5008;50.656;7.188;2022-12-10T07:59:59;31.73;;;21.77;;
9938;SDS011;5008;50.656;7.188;2022-12-10T08:02:25;31.97;;;21.23;;
9938;SDS011;5008;50.656;7.188;2022-12-10T08:04:52;33.70;;;22.93;;
9938;SDS011;5008;50.656;7.188;2022-12-10T08:07:19;32.67;;;21.53;;
9938;SDS011;5008;50.656;7.188;2022-12-10T08:09:47;35.67;;;23.30;;
9938;SDS011;5008;50.656;7.188;2022-12-10T08:12:14;32.03;;;22.37;;
9938;SDS011;5008;50.656;7.188;2022-12-10T08:14:41;32.90;;;22.60;;
9938;SDS011;5008;50.656;7.188;2022-12-10T08:17:08;30.87;;;21.20;;
9938;SDS011;5008;50.656;7.188;2022-12-10T08:19:35;28.23;;;19.80;;
9938;SDS011;5008;50.656;7.188;2022-12-10T08:22:01;36.13;;;22.77;;
9938;SDS011;5008;50.656;7.188;2022-12-10T08:24:28;32.97;;;21.53;;
9938;SDS011;5008;50.656;7.188;2022-12-10T08:26:57;29.30;;;21.00;;
9938;SDS011;5008;50.656;7.188;2022-12-10T08:29:23;30.03;;;20.73;;
9938;SDS011;5008;50.656;7.188;2022-12-10T08:31:50;28.73;;;20.67;;
9938;SDS011;5008;50.656;7.188;2022-12-10T08:34:18;31.90;;;21.13;;
9938;SDS011;5008;50.656;7.188;2022-12-10T08:36:45;28.80;;;19.67;;
9938;SDS011;5008;50.656;7.188;2022-12-10T08:39:12;29.50;;;19.77;;
9938;SDS011;5008;50.656;7.188;2022-12-10T08:41:40;30.67;;;21.40;;
9938;SDS011;5008;50.656;7.188;2022-12-10T08:44:08;28.77;;;20.07;;
9938;SDS011;5008;50.656;7.188;2022-12-10T08:46:36;30.47;;;21.43;;
9938;SDS011;5008;50.656;7.188;2022-12-10T08:49:03;28.90;;;18.93;;
9938;SDS011;5008;50.656;7.188;2022-12-10T08:51:31;25.00;;;18.50;;
9938;SDS011;5008;50.656;7.188;2022-12-10T08:53:58;25.63;;;18.63;;
9938;SDS011;5008;50.656;7.188;2022-12-10T08:56:25;26.07;;;19.57;;
9938;SDS011;5008;50.656;7.188;2022-12-10T08:58:52;29.43;;;19.97;;
9938;SDS011;5008;50.656;7.188;2022-12-10T09:01:20;24.80;;;19.03;;
9938;SDS011;5008;50.656;7.188;2022-12-10T09:03:50;25.37;;;18.97;;
9938;SDS011;5008;50.656;7.188;2022-12-10T09:06:19;28.67;;;20.30;;
9938;SDS011;5008;50.656;7.188;2022-12-10T09:08:56;21.83;;;17.10;;
9938;SDS011;5008;50.656;7.188;2022-12-10T09:11:24;23.20;;;17.03;;
9938;SDS011;5008;50.656;7.188;2022-12-10T09:13:55;23.53;;;18.47;;
9938;SDS011;5008;50.656;7.188;2022-12-10T09:16:28;22.17;;;16.17;;
9938;SDS011;5008;50.656;7.188;2022-12-10T09:18:57;19.07;;;14.70;;
9938;SDS011;5008;50.656;7.188;2022-12-10T09:21:24;14.73;;;12.97;;
9938;SDS011;5008;50.656;7.188;2022-12-10T09:23:51;19.37;;;14.13;;
9938;SDS011;5008;50.656;7.188;2022-12-10T09:26:18;23.10;;;15.07;;
9938;SDS011;5008;50.656;7.188;2022-12-10T09:28:52;18.13;;;14.10;;
9938;SDS011;5008;50.656;7.188;2022-12-10T09:31:20;20.57;;;14.13;;
9938;SDS011;5008;50.656;7.188;2022-12-10T09:33:48;19.57;;;15.30;;
9938;SDS011;5008;50.656;7.188;2022-12-10T09:36:17;18.50;;;13.57;;
9938;SDS011;5008;50.656;7.188;2022-12-10T09:38:44;16.57;;;13.40;;
9938;SDS011;5008;50.656;7.188;2022-12-10T09:41:19;21.07;;;16.20;;
9938;SDS011;5008;50.656;7.188;2022-12-10T09:44:12;21.27;;;14.60;;
9938;SDS011;5008;50.656;7.188;2022-12-10T09:46:50;20.47;;;14.27;;
9938;SDS011;5008;50.656;7.188;2022-12-10T09:49:23;20.20;;;14.33;;
9938;SDS011;5008;50.656;7.188;2022-12-10T09:52:02;18.77;;;13.83;;
9938;SDS011;5008;50.656;7.188;2022-12-10T09:54:32;19.03;;;15.30;;
9938;SDS011;5008;50.656;7.188;2022-12-10T09:57:04;20.67;;;15.43;;
9938;SDS011;5008;50.656;7.188;2022-12-10T09:59:35;21.60;;;14.87;;
9938;SDS011;5008;50.656;7.188;2022-12-10T10:02:11;21.73;;;15.03;;
9938;SDS011;5008;50.656;7.188;2022-12-10T10:04:50;21.70;;;15.53;;
9938;SDS011;5008;50.656;7.188;2022-12-10T10:07:19;20.60;;;14.87;;
9938;SDS011;5008;50.656;7.188;2022-12-10T10:09:49;23.37;;;15.90;;
9938;SDS011;5008;50.656;7.188;2022-12-10T10:12:17;18.17;;;14.00;;
9938;SDS011;5008;50.656;7.188;2022-12-10T10:14:44;20.47;;;14.83;;
9938;SDS011;5008;50.656;7.188;2022-12-10T10:17:12;22.53;;;15.53;;
9938;SDS011;5008;50.656;7.188;2022-12-10T10:19:46;21.13;;;15.20;;
9938;SDS011;5008;50.656;7.188;2022-12-10T10:22:15;21.50;;;16.00;;
9938;SDS011;5008;50.656;7.188;2022-12-10T10:24:43;22.90;;;16.73;;
9938;SDS011;5008;50.656;7.188;2022-12-10T10:27:12;22.23;;;17.57;;
9938;SDS011;5008;50.656;7.188;2022-12-10T10:29:41;23.10;;;16.60;;
9938;SDS011;5008;50.656;7.188;2022-12-10T10:32:16;21.03;;;16.57;;
9938;SDS011;5008;50.656;7.188;2022-12-10T10:34:52;21.03;;;16.13;;
9938;SDS011;5008;50.656;7.188;2022-12-10T10:37:22;22.10;;;17.03;;
9938;SDS011;5008;50.656;7.188;2022-12-10T10:39:52;23.07;;;16.73;;
9938;SDS011;5008;50.656;7.188;2022-12-10T10:42:23;21.43;;;16.70;;
9938;SDS011;5008;50.656;7.188;2022-12-10T10:44:53;24.77;;;17.30;;
9938;SDS011;5008;50.656;7.188;2022-12-10T10:47:24;22.23;;;16.43;;
9938;SDS011;5008;50.656;7.188;2022-12-10T10:49:53;21.87;;;15.73;;
9938;SDS011;5008;50.656;7.188;2022-12-10T10:52:21;19.13;;;14.33;;
9938;SDS011;5008;50.656;7.188;2022-12-10T10:54:49;21.80;;;14.83;;
9938;SDS011;5008;50.656;7.188;2022-12-10T10:57:17;19.20;;;14.60;;
9938;SDS011;5008;50.656;7.188;2022-12-10T10:59:49;22.23;;;15.70;;
9938;SDS011;5008;50.656;7.188;2022-12-10T11:02:20;20.23;;;15.77;;
9938;SDS011;5008;50.656;7.188;2022-12-10T11:04:50;20.47;;;14.73;;
9938;SDS011;5008;50.656;7.188;2022-12-10T11:07:21;18.90;;;14.23;;
9938;SDS011;5008;50.656;7.188;2022-12-10T11:09:52;20.63;;;14.83;;
9938;SDS011;5008;50.656;7.188;2022-12-10T11:12:27;23.47;;;16.70;;
9938;SDS011;5008;50.656;7.188;2022-12-10T11:14:59;20.87;;;15.70;;
9938;SDS011;5008;50.656;7.188;2022-12-10T11:17:26;24.50;;;15.63;;
9938;SDS011;5008;50.656;7.188;2022-12-10T11:22:50;22.43;;;15.80;;
9938;SDS011;5008;50.656;7.188;2022-12-10T11:25:17;21.33;;;15.93;;
9938;SDS011;5008;50.656;7.188;2022-12-10T11:27:51;24.73;;;17.13;;
9938;SDS011;5008;50.656;7.188;2022-12-10T11:30:25;21.87;;;16.77;;
9938;SDS011;5008;50.656;7.188;2022-12-10T11:33:00;24.90;;;18.23;;
9938;SDS011;5008;50.656;7.188;2022-12-10T11:35:41;23.30;;;16.33;;
9938;SDS011;5008;50.656;7.188;2022-12-10T11:38:20;19.90;;;14.93;;
9938;SDS011;5008;50.656;7.188;2022-12-10T11:40:52;20.93;;;16.27;;
9938;SDS011;5008;50.656;7.188;2022-12-10T11:43:40;21.23;;;14.63;;
9938;SDS011;5008;50.656;7.188;2022-12-10T11:46:20;17.93;;;14.53;;
9938;SDS011;5008;50.656;7.188;2022-12-10T11:49:00;19.20;;;15.00;;
9938;SDS011;5008;50.656;7.188;2022-12-10T11:51:39;20.93;;;15.37;;
9938;SDS011;5008;50.656;7.188;2022-12-10T11:54:17;21.77;;;15.33;;
9938;SDS011;5008;50.656;7.188;2022-12-10T11:56:56;21.03;;;15.73;;
9938;SDS011;5008;50.656;7.188;2022-12-10T11:59:33;23.50;;;16.50;;
9938;SDS011;5008;50.656;7.188;2022-12-10T12:02:15;22.73;;;16.77;;
9938;SDS011;5008;50.656;7.188;2022-12-10T12:05:05;19.90;;;15.90;;
9938;SDS011;5008;50.656;7.188;2022-12-10T12:07:55;19.97;;;15.43;;
9938;SDS011;5008;50.656;7.188;2022-12-10T12:10:44;17.03;;;13.13;;
9938;SDS011;5008;50.656;7.188;2022-12-10T12:13:22;20.63;;;13.53;;
9938;SDS011;5008;50.656;7.188;2022-12-10T12:15:54;19.23;;;14.27;;
9938;SDS011;5008;50.656;7.188;2022-12-10T12:18:26;17.60;;;13.10;;
9938;SDS011;5008;50.656;7.188;2022-12-10T12:21:03;19.07;;;13.40;;
9938;SDS011;5008;50.656;7.188;2022-12-10T12:23:36;18.93;;;14.50;;
9938;SDS011;5008;50.656;7.188;2022-12-10T12:26:14;17.10;;;12.87;;
9938;SDS011;5008;50.656;7.188;2022-12-10T12:28:50;18.90;;;14.13;;
9938;SDS011;5008;50.656;7.188;2022-12-10T12:31:21;21.20;;;13.43;;
9938;SDS011;5008;50.656;7.188;2022-12-10T12:33:57;18.33;;;13.27;;
9938;SDS011;5008;50.656;7.188;2022-12-10T12:36:27;18.87;;;13.20;;
9938;SDS011;5008;50.656;7.188;2022-12-10T12:39:00;18.53;;;13.67;;
9938;SDS011;5008;50.656;7.188;2022-12-10T12:41:34;19.57;;;13.47;;
9938;SDS011;5008;50.656;7.188;2022-12-10T12:44:09;18.00;;;13.50;;
9938;SDS011;5008;50.656;7.188;2022-12-10T12:46:43;16.63;;;12.57;;
9938;SDS011;5008;50.656;7.188;2022-12-10T12:49:14;17.10;;;12.43;;
9938;SDS011;5008;50.656;7.188;2022-12-10T12:51:48;16.97;;;12.50;;
9938;SDS011;5008;50.656;7.188;2022-12-10T12:57:10;16.97;;;11.77;;
9938;SDS011;5008;50.656;7.188;2022-12-10T12:59:50;18.63;;;12.77;;
9938;SDS011;5008;50.656;7.188;2022-12-10T13:02:26;18.17;;;13.40;;
9938;SDS011;5008;50.656;7.188;2022-12-10T13:08:24;18.57;;;12.80;;
9938;SDS011;5008;50.656;7.188;2022-12-10T13:10:56;20.80;;;13.20;;
9938;SDS011;5008;50.656;7.188;2022-12-10T13:13:28;20.47;;;13.50;;
9938;SDS011;5008;50.656;7.188;2022-12-10T13:15:59;16.83;;;13.43;;
9938;SDS011;5008;50.656;7.188;2022-12-10T13:19:27;19.10;;;12.97;;
9938;SDS011;5008;50.656;7.188;2022-12-10T13:21:57;16.83;;;12.77;;
9938;SDS011;5008;50.656;7.188;2022-12-10T13:27:31;17.00;;;12.03;;
9938;SDS011;5008;50.656;7.188;2022-12-10T13:30:00;16.13;;;11.87;;
9938;SDS011;5008;50.656;7.188;2022-12-10T13:32:45;19.73;;;13.57;;
9938;SDS011;5008;50.656;7.188;2022-12-10T13:35:16;18.67;;;12.87;;
9938;SDS011;5008;50.656;7.188;2022-12-10T13:38:15;17.70;;;13.10;;
9938;SDS011;5008;50.656;7.188;2022-12-10T13:40:49;17.70;;;12.83;;
9938;SDS011;5008;50.656;7.188;2022-12-10T13:43:41;18.20;;;12.50;;
9938;SDS011;5008;50.656;7.188;2022-12-10T13:46:35;16.93;;;13.27;;
9938;SDS011;5008;50.656;7.188;2022-12-10T13:49:18;19.13;;;13.57;;
9938;SDS011;5008;50.656;7.188;2022-12-10T13:51:49;20.30;;;13.90;;
9938;SDS011;5008;50.656;7.188;2022-12-10T13:54:26;19.70;;;13.20;;
9938;SDS011;5008;50.656;7.188;2022-12-10T13:57:05;18.53;;;14.23;;
9938;SDS011;5008;50.656;7.188;2022-12-10T13:59:42;21.07;;;13.70;;
9938;SDS011;5008;50.656;7.188;2022-12-10T14:02:21;19.90;;;13.73;;
9938;SDS011;5008;50.656;7.188;2022-12-10T14:05:09;20.87;;;14.13;;
9938;SDS011;5008;50.656;7.188;2022-12-10T14:07:50;20.27;;;13.97;;
9938;SDS011;5008;50.656;7.188;2022-12-10T14:13:24;22.63;;;14.77;;
9938;SDS011;5008;50.656;7.188;2022-12-10T14:15:57;20.60;;;15.37;;
9938;SDS011;5008;50.656;7.188;2022-12-10T14:18:26;19.47;;;13.87;;
9938;SDS011;5008;50.656;7.188;2022-12-10T14:20:55;19.27;;;14.47;;
9938;SDS011;5008;50.656;7.188;2022-12-10T14:23:29;20.67;;;15.77;;
9938;SDS011;5008;50.656;7.188;2022-12-10T14:26:04;21.40;;;14.53;;
9938;SDS011;5008;50.656;7.188;2022-12-10T14:28:36;17.80;;;13.43;;
9938;SDS011;5008;50.656;7.188;2022-12-10T14:31:05;21.73;;;15.40;;
9938;SDS011;5008;50.656;7.188;2022-12-10T14:33:37;20.47;;;15.27;;
9938;SDS011;5008;50.656;7.188;2022-12-10T14:36:04;18.30;;;14.60;;
9938;SDS011;5008;50.656;7.188;2022-12-10T14:38:31;24.80;;;15.70;;
9938;SDS011;5008;50.656;7.188;2022-12-10T14:41:06;23.33;;;15.47;;
9938;SDS011;5008;50.656;7.188;2022-12-10T14:43:35;25.73;;;16.53;;
9938;SDS011;5008;50.656;7.188;2022-12-10T14:46:04;23.97;;;17.13;;
9938;SDS011;5008;50.656;7.188;2022-12-10T14:48:38;25.77;;;17.03;;
9938;SDS011;5008;50.656;7.188;2022-12-10T14:51:10;24.67;;;15.57;;
9938;SDS011;5008;50.656;7.188;2022-12-10T14:53:40;22.80;;;15.67;;
9938;SDS011;5008;50.656;7.188;2022-12-10T14:56:08;21.80;;;15.97;;
9938;SDS011;5008;50.656;7.188;2022-12-10T14:58:41;20.30;;;14.57;;
9938;SDS011;5008;50.656;7.188;2022-12-10T15:01:14;22.97;;;15.80;;
9938;SDS011;5008;50.656;7.188;2022-12-10T15:03:45;19.23;;;14.77;;
9938;SDS011;5008;50.656;7.188;2022-12-10T15:08:49;19.60;;;14.07;;
9938;SDS011;5008;50.656;7.188;2022-12-10T15:11:23;22.97;;;15.53;;
9938;SDS011;5008;50.656;7.188;2022-12-10T15:13:51;23.40;;;14.67;;
9938;SDS011;5008;50.656;7.188;2022-12-10T15:16:27;21.47;;;14.90;;
9938;SDS011;5008;50.656;7.188;2022-12-10T15:18:55;20.93;;;15.00;;
9938;SDS011;5008;50.656;7.188;2022-12-10T15:21:44;35.87;;;23.57;;
9938;SDS011;5008;50.656;7.188;2022-12-10T15:24:14;35.03;;;22.17;;
9938;SDS011;5008;50.656;7.188;2022-12-10T15:26:45;26.27;;;17.60;;
9938;SDS011;5008;50.656;7.188;2022-12-10T15:32:17;19.63;;;14.37;;
9938;SDS011;5008;50.656;7.188;2022-12-10T15:34:48;21.60;;;16.20;;
9938;SDS011;5008;50.656;7.188;2022-12-10T15:37:21;22.80;;;16.47;;
9938;SDS011;5008;50.656;7.188;2022-12-10T15:39:51;24.17;;;15.70;;
9938;SDS011;5008;50.656;7.188;2022-12-10T15:45:19;25.57;;;16.43;;
9938;SDS011;5008;50.656;7.188;2022-12-10T15:50:42;24.10;;;16.13;;
9938;SDS011;5008;50.656;7.188;2022-12-10T15:53:13;25.13;;;17.20;;
9938;SDS011;5008;50.656;7.188;2022-12-10T15:55:42;22.77;;;16.20;;
9938;SDS011;5008;50.656;7.188;2022-12-10T15:58:11;22.03;;;15.83;;
9938;SDS011;5008;50.656;7.188;2022-12-10T16:00:40;24.10;;;16.03;;
9938;SDS011;5008;50.656;7.188;2022-12-10T16:03:09;24.73;;;15.17;;
9938;SDS011;5008;50.656;7.188;2022-12-10T16:05:38;21.83;;;15.60;;
9938;SDS011;5008;50.656;7.188;2022-12-10T16:08:06;22.10;;;15.97;;
9938;SDS011;5008;50.656;7.188;2022-12-10T16:10:39;22.47;;;14.73;;
9938;SDS011;5008;50.656;7.188;2022-12-10T16:13:06;25.03;;;16.33;;
9938;SDS011;5008;50.656;7.188;2022-12-10T16:15:42;23.90;;;17.53;;
9938;SDS011;5008;50.656;7.188;2022-12-10T16:18:11;27.83;;;17.93;;
9938;SDS011;5008;50.656;7.188;2022-12-10T16:20:38;22.77;;;16.50;;
9938;SDS011;5008;50.656;7.188;2022-12-10T16:23:05;20.70;;;15.10;;
9938;SDS011;5008;50.656;7.188;2022-12-10T16:25:32;23.20;;;17.47;;
9938;SDS011;5008;50.656;7.188;2022-12-10T16:28:00;28.37;;;18.77;;
9938;SDS011;5008;50.656;7.188;2022-12-10T16:30:30;27.43;;;18.07;;
9938;SDS011;5008;50.656;7.188;2022-12-10T16:33:00;26.23;;;18.80;;
9938;SDS011;5008;50.656;7.188;2022-12-10T16:35:27;27.03;;;18.77;;
9938;SDS011;5008;50.656;7.188;2022-12-10T16:40:52;23.60;;;16.83;;
9938;SDS011;5008;50.656;7.188;2022-12-10T16:43:28;24.93;;;18.10;;
9938;SDS011;5008;50.656;7.188;2022-12-10T16:45:59;24.60;;;18.20;;
9938;SDS011;5008;50.656;7.188;2022-12-10T16:48:25;22.47;;;15.83;;
9938;SDS011;5008;50.656;7.188;2022-12-10T16:50:52;27.70;;;18.13;;
9938;SDS011;5008;50.656;7.188;2022-12-10T16:53:24;22.57;;;15.60;;
9938;SDS011;5008;50.656;7.188;2022-12-10T16:55:52;24.47;;;17.23;;
9938;SDS011;5008;50.656;7.188;2022-12-10T16:58:20;21.00;;;16.07;;
9938;SDS011;5008;50.656;7.188;2022-12-10T17:00:50;25.57;;;17.83;;
9938;SDS011;5008;50.656;7.188;2022-12-10T17:03:20;26.60;;;17.77;;
9938;SDS011;5008;50.656;7.188;2022-12-10T17:05:48;24.50;;;17.37;;
9938;SDS011;5008;50.656;7.188;2022-12-10T17:08:16;24.90;;;17.40;;
9938;SDS011;5008;50.656;7.188;2022-12-10T17:10:44;22.67;;;17.37;;
9938;SDS011;5008;50.656;7.188;2022-12-10T17:13:29;28.30;;;18.30;;
9938;SDS011;5008;50.656;7.188;2022-12-10T17:15:56;24.53;;;17.20;;
9938;SDS011;5008;50.656;7.188;2022-12-10T17:18:24;23.67;;;17.40;;
9938;SDS011;5008;50.656;7.188;2022-12-10T17:20:51;24.27;;;17.93;;
9938;SDS011;5008;50.656;7.188;2022-12-10T17:23:18;22.20;;;16.67;;
9938;SDS011;5008;50.656;7.188;2022-12-10T17:25:46;21.60;;;16.37;;
9938;SDS011;5008;50.656;7.188;2022-12-10T17:28:14;24.93;;;17.57;;
9938;SDS011;5008;50.656;7.188;2022-12-10T17:30:43;24.03;;;16.80;;
9938;SDS011;5008;50.656;7.188;2022-12-10T17:33:11;20.90;;;15.97;;
9938;SDS011;5008;50.656;7.188;2022-12-10T17:35:40;23.10;;;16.70;;
9938;SDS011;5008;50.656;7.188;2022-12-10T17:38:12;24.63;;;17.27;;
9938;SDS011;5008;50.656;7.188;2022-12-10T17:40:41;23.93;;;16.53;;
9938;SDS011;5008;50.656;7.188;2022-12-10T17:43:09;25.47;;;17.93;;
9938;SDS011;5008;50.656;7.188;2022-12-10T17:45:36;25.03;;;19.13;;
9938;SDS011;5008;50.656;7.188;2022-12-10T17:48:03;26.83;;;18.97;;
9938;SDS011;5008;50.656;7.188;2022-12-10T17:50:31;26.10;;;18.90;;
9938;SDS011;5008;50.656;7.188;2022-12-10T17:53:02;28.03;;;19.47;;
9938;SDS011;5008;50.656;7.188;2022-12-10T17:55:30;27.57;;;20.33;;
9938;SDS011;5008;50.656;7.188;2022-12-10T17:57:57;23.40;;;17.57;;
9938;SDS011;5008;50.656;7.188;2022-12-10T18:00:27;24.97;;;17.67;;
9938;SDS011;5008;50.656;7.188;2022-12-10T18:02:57;23.20;;;17.43;;
9938;SDS011;5008;50.656;7.188;2022-12-10T18:05:24;24.97;;;17.87;;
9938;SDS011;5008;50.656;7.188;2022-12-10T18:07:51;26.73;;;19.13;;
9938;SDS011;5008;50.656;7.188;2022-12-10T18:10:24;26.60;;;19.03;;
9938;SDS011;5008;50.656;7.188;2022-12-10T18:13:04;27.00;;;19.13;;
9938;SDS011;5008;50.656;7.188;2022-12-10T18:15:41;27.83;;;19.23;;
9938;SDS011;5008;50.656;7.188;2022-12-10T18:18:08;26.03;;;17.97;;
9938;SDS011;5008;50.656;7.188;2022-12-10T18:23:13;28.27;;;20.73;;
9938;SDS011;5008;50.656;7.188;2022-12-10T18:25:42;26.33;;;19.80;;
9938;SDS011;5008;50.656;7.188;2022-12-10T18:28:15;27.13;;;19.13;;
9938;SDS011;5008;50.656;7.188;2022-12-10T18:31:14;26.53;;;18.97;;
9938;SDS011;5008;50.656;7.188;2022-12-10T18:33:43;25.57;;;18.43;;
9938;SDS011;5008;50.656;7.188;2022-12-10T18:36:13;27.17;;;19.97;;
9938;SDS011;5008;50.656;7.188;2022-12-10T18:38:42;26.77;;;19.00;;
9938;SDS011;5008;50.656;7.188;2022-12-10T18:41:12;24.03;;;19.13;;
9938;SDS011;5008;50.656;7.188;2022-12-10T18:43:41;26.77;;;19.10;;
9938;SDS011;5008;50.656;7.188;2022-12-10T18:46:10;26.07;;;18.47;;
9938;SDS011;5008;50.656;7.188;2022-12-10T18:48:39;29.60;;;21.57;;
9938;SDS011;5008;50.656;7.188;2022-12-10T18:51:06;25.13;;;18.00;;
9938;SDS011;5008;50.656;7.188;2022-12-10T18:53:33;27.47;;;21.13;;
9938;SDS011;5008;50.656;7.188;2022-12-10T18:56:00;29.47;;;20.57;;
9938;SDS011;5008;50.656;7.188;2022-12-10T18:58:28;30.87;;;22.47;;
9938;SDS011;5008;50.656;7.188;2022-12-10T19:00:55;25.93;;;19.63;;
9938;SDS011;5008;50.656;7.188;2022-12-10T19:03:22;26.57;;;18.67;;
9938;SDS011;5008;50.656;7.188;2022-12-10T19:05:49;22.43;;;17.80;;
9938;SDS011;5008;50.656;7.188;2022-12-10T19:08:15;25.50;;;18.70;;
9938;SDS011;5008;50.656;7.188;2022-12-10T19:10:42;26.60;;;19.27;;
9938;SDS011;5008;50.656;7.188;2022-12-10T19:13:10;28.30;;;20.30;;
9938;SDS011;5008;50.656;7.188;2022-12-10T19:15:38;27.07;;;19.50;;
9938;SDS011;5008;50.656;7.188;2022-12-10T19:18:05;24.83;;;18.67;;
9938;SDS011;5008;50.656;7.188;2022-12-10T19:20:34;26.90;;;18.57;;
9938;SDS011;5008;50.656;7.188;2022-12-10T19:23:01;27.53;;;19.50;;
9938;SDS011;5008;50.656;7.188;2022-12-10T19:25:28;27.03;;;19.80;;
9938;SDS011;5008;50.656;7.188;2022-12-10T19:27:55;29.67;;;20.33;;
9938;SDS011;5008;50.656;7.188;2022-12-10T19:30:22;26.07;;;20.37;;
9938;SDS011;5008;50.656;7.188;2022-12-10T19:32:54;27.57;;;20.13;;
9938;SDS011;5008;50.656;7.188;2022-12-10T19:35:22;27.10;;;20.67;;
9938;SDS011;5008;50.656;7.188;2022-12-10T19:37:51;28.00;;;21.90;;
9938;SDS011;5008;50.656;7.188;2022-12-10T19:40:23;29.90;;;20.47;;
9938;SDS011;5008;50.656;7.188;2022-12-10T19:42:50;29.23;;;20.40;;
9938;SDS011;5008;50.656;7.188;2022-12-10T19:45:17;29.33;;;19.50;;
9938;SDS011;5008;50.656;7.188;2022-12-10T19:47:45;28.50;;;20.67;;
9938;SDS011;5008;50.656;7.188;2022-12-10T19:50:16;26.57;;;19.13;;
9938;SDS011;5008;50.656;7.188;2022-12-10T19:52:44;28.07;;;20.10;;
9938;SDS011;5008;50.656;7.188;2022-12-10T19:55:11;26.93;;;19.57;;
9938;SDS011;5008;50.656;7.188;2022-12-10T19:57:57;30.03;;;20.23;;
9938;SDS011;5008;50.656;7.188;2022-12-10T20:00:25;26.33;;;19.83;;
9938;SDS011;5008;50.656;7.188;2022-12-10T20:02:54;25.07;;;18.93;;
9938;SDS011;5008;50.656;7.188;2022-12-10T20:05:22;27.33;;;20.13;;
9938;SDS011;5008;50.656;7.188;2022-12-10T20:07:49;27.83;;;19.30;;
9938;SDS011;5008;50.656;7.188;2022-12-10T20:10:18;24.43;;;20.30;;
9938;SDS011;5008;50.656;7.188;2022-12-10T20:12:47;27.33;;;20.67;;
9938;SDS011;5008;50.656;7.188;2022-12-10T20:15:14;29.20;;;20.70;;
9938;SDS011;5008;50.656;7.188;2022-12-10T20:17:41;28.03;;;21.13;;
9938;SDS011;5008;50.656;7.188;2022-12-10T20:20:12;26.93;;;20.27;;
9938;SDS011;5008;50.656;7.188;2022-12-10T20:22:43;27.90;;;20.13;;
9938;SDS011;5008;50.656;7.188;2022-12-10T20:25:10;27.53;;;20.30;;
9938;SDS011;5008;50.656;7.188;2022-12-10T20:27:38;26.23;;;19.47;;
9938;SDS011;5008;50.656;7.188;2022-12-10T20:30:05;26.17;;;18.43;;
9938;SDS011;5008;50.656;7.188;2022-12-10T20:32:33;25.93;;;19.50;;
9938;SDS011;5008;50.656;7.188;2022-12-10T20:35:00;28.17;;;20.33;;
9938;SDS011;5008;50.656;7.188;2022-12-10T20:37:27;26.67;;;18.70;;
9938;SDS011;5008;50.656;7.188;2022-12-10T20:39:55;25.50;;;19.70;;
9938;SDS011;5008;50.656;7.188;2022-12-10T20:42:22;25.33;;;18.97;;